sensor_id;sensor_type;location;lat;lon;timestamp;P1;durP1;ratioP1;P2;durP2;ratioP2
55146;SDS011;41039;49.830;23.988;2024-02-26T00:01:20;9.68;;;7.40;;
55146;SDS011;41039;49.830;23.988;2024-02-26T00:03:46;8.15;;;7.32;;
55146;SDS011;41039;49.830;23.988;2024-02-26T00:06:12;7.70;;;6.85;;
55146;SDS011;41039;49.830;23.988;2024-02-26T00:08:37;7.57;;;6.80;;
55146;SDS011;41039;49.830;23.988;2024-02-26T00:11:02;8.25;;;7.45;;
55146;SDS011;41039;49.830;23.988;2024-02-26T00:13:28;8.65;;;7.35;;
55146;SDS011;41039;49.830;23.988;2024-02-26T00:15:53;8.67;;;7.73;;
55146;SDS011;41039;49.830;23.988;2024-02-26T00:18:18;8.43;;;6.90;;
55146;SDS011;41039;49.830;23.988;2024-02-26T00:20:44;9.50;;;8.03;;
55146;SDS011;41039;49.830;23.988;2024-02-26T00:23:09;9.48;;;7.68;;
55146;SDS011;41039;49.830;23.988;2024-02-26T00:25:34;8.00;;;7.20;;
55146;SDS011;41039;49.830;23.988;2024-02-26T00:28:01;8.32;;;7.43;;
55146;SDS011;41039;49.830;23.988;2024-02-26T00:30:26;9.17;;;7.87;;
55146;SDS011;41039;49.830;23.988;2024-02-26T00:32:51;9.47;;;8.57;;
55146;SDS011;41039;49.830;23.988;2024-02-26T00:35:16;9.60;;;8.67;;
55146;SDS011;41039;49.830;23.988;2024-02-26T00:37:45;9.60;;;8.55;;
55146;SDS011;41039;49.830;23.988;2024-02-26T00:40:10;9.68;;;7.93;;
55146;SDS011;41039;49.830;23.988;2024-02-26T00:42:36;9.40;;;8.45;;
55146;SDS011;41039;49.830;23.988;2024-02-26T00:45:01;10.88;;;9.27;;
55146;SDS011;41039;49.830;23.988;2024-02-26T00:47:27;10.52;;;9.32;;
55146;SDS011;41039;49.830;23.988;2024-02-26T00:49:52;9.93;;;8.90;;
55146;SDS011;41039;49.830;23.988;2024-02-26T00:52:17;11.43;;;9.87;;
55146;SDS011;41039;49.830;23.988;2024-02-26T00:54:42;10.77;;;9.67;;
55146;SDS011;41039;49.830;23.988;2024-02-26T00:57:08;11.07;;;9.80;;
55146;SDS011;41039;49.830;23.988;2024-02-26T00:59:33;10.63;;;9.57;;
55146;SDS011;41039;49.830;23.988;2024-02-26T01:01:58;10.87;;;9.70;;
55146;SDS011;41039;49.830;23.988;2024-02-26T01:04:26;11.48;;;10.30;;
55146;SDS011;41039;49.830;23.988;2024-02-26T01:06:51;10.70;;;9.60;;
55146;SDS011;41039;49.830;23.988;2024-02-26T01:09:16;11.13;;;9.47;;
55146;SDS011;41039;49.830;23.988;2024-02-26T01:11:43;11.02;;;9.55;;
55146;SDS011;41039;49.830;23.988;2024-02-26T01:14:08;11.17;;;9.87;;
55146;SDS011;41039;49.830;23.988;2024-02-26T01:16:33;12.48;;;10.80;;
55146;SDS011;41039;49.830;23.988;2024-02-26T01:18:58;11.43;;;10.15;;
55146;SDS011;41039;49.830;23.988;2024-02-26T01:21:24;13.68;;;10.52;;
55146;SDS011;41039;49.830;23.988;2024-02-26T01:23:49;13.20;;;9.80;;
55146;SDS011;41039;49.830;23.988;2024-02-26T01:26:14;11.50;;;10.30;;
55146;SDS011;41039;49.830;23.988;2024-02-26T01:28:39;12.33;;;11.03;;
55146;SDS011;41039;49.830;23.988;2024-02-26T01:31:04;12.23;;;10.97;;
55146;SDS011;41039;49.830;23.988;2024-02-26T01:33:32;12.32;;;10.93;;
55146;SDS011;41039;49.830;23.988;2024-02-26T01:35:58;13.25;;;11.60;;
55146;SDS011;41039;49.830;23.988;2024-02-26T01:38:23;12.57;;;11.03;;
55146;SDS011;41039;49.830;23.988;2024-02-26T01:40:48;14.52;;;11.98;;
55146;SDS011;41039;49.830;23.988;2024-02-26T01:43:13;12.75;;;10.75;;
55146;SDS011;41039;49.830;23.988;2024-02-26T01:45:38;12.70;;;11.40;;
55146;SDS011;41039;49.830;23.988;2024-02-26T01:48:04;12.73;;;11.43;;
55146;SDS011;41039;49.830;23.988;2024-02-26T01:50:29;11.75;;;10.55;;
55146;SDS011;41039;49.830;23.988;2024-02-26T01:52:54;13.82;;;11.75;;
55146;SDS011;41039;49.830;23.988;2024-02-26T01:55:22;12.13;;;10.93;;
55146;SDS011;41039;49.830;23.988;2024-02-26T01:57:48;13.48;;;11.75;;
55146;SDS011;41039;49.830;23.988;2024-02-26T02:00:13;13.32;;;11.13;;
55146;SDS011;41039;49.830;23.988;2024-02-26T02:02:39;13.75;;;11.45;;
55146;SDS011;41039;49.830;23.988;2024-02-26T02:05:06;11.35;;;10.23;;
55146;SDS011;41039;49.830;23.988;2024-02-26T02:07:32;16.98;;;11.35;;
55146;SDS011;41039;49.830;23.988;2024-02-26T02:09:58;14.40;;;12.05;;
55146;SDS011;41039;49.830;23.988;2024-02-26T02:12:23;12.75;;;11.38;;
55146;SDS011;41039;49.830;23.988;2024-02-26T02:14:49;12.50;;;11.18;;
55146;SDS011;41039;49.830;23.988;2024-02-26T02:17:14;13.90;;;11.65;;
55146;SDS011;41039;49.830;23.988;2024-02-26T02:19:39;13.27;;;11.63;;
55146;SDS011;41039;49.830;23.988;2024-02-26T02:22:05;12.50;;;11.20;;
55146;SDS011;41039;49.830;23.988;2024-02-26T02:24:30;13.70;;;11.90;;
55146;SDS011;41039;49.830;23.988;2024-02-26T02:26:55;13.37;;;11.60;;
55146;SDS011;41039;49.830;23.988;2024-02-26T02:29:20;13.77;;;12.27;;
55146;SDS011;41039;49.830;23.988;2024-02-26T02:31:46;15.23;;;12.35;;
55146;SDS011;41039;49.830;23.988;2024-02-26T02:34:11;12.90;;;11.50;;
55146;SDS011;41039;49.830;23.988;2024-02-26T02:36:52;13.13;;;11.50;;
55146;SDS011;41039;49.830;23.988;2024-02-26T02:39:18;10.48;;;9.25;;
55146;SDS011;41039;49.830;23.988;2024-02-26T02:41:43;12.25;;;10.95;;
55146;SDS011;41039;49.830;23.988;2024-02-26T02:44:09;11.90;;;9.68;;
55146;SDS011;41039;49.830;23.988;2024-02-26T02:46:34;11.88;;;9.82;;
55146;SDS011;41039;49.830;23.988;2024-02-26T02:49:00;11.02;;;9.82;;
55146;SDS011;41039;49.830;23.988;2024-02-26T02:51:25;10.80;;;9.80;;
55146;SDS011;41039;49.830;23.988;2024-02-26T02:53:50;11.27;;;9.53;;
55146;SDS011;41039;49.830;23.988;2024-02-26T02:56:16;11.33;;;9.83;;
55146;SDS011;41039;49.830;23.988;2024-02-26T02:58:41;10.45;;;9.35;;
55146;SDS011;41039;49.830;23.988;2024-02-26T03:01:06;10.57;;;9.48;;
55146;SDS011;41039;49.830;23.988;2024-02-26T03:03:31;10.43;;;9.43;;
55146;SDS011;41039;49.830;23.988;2024-02-26T03:05:57;12.13;;;10.38;;
55146;SDS011;41039;49.830;23.988;2024-02-26T03:08:22;11.03;;;9.07;;
55146;SDS011;41039;49.830;23.988;2024-02-26T03:10:47;10.60;;;9.50;;
55146;SDS011;41039;49.830;23.988;2024-02-26T03:13:13;9.52;;;8.48;;
55146;SDS011;41039;49.830;23.988;2024-02-26T03:15:38;12.30;;;9.40;;
55146;SDS011;41039;49.830;23.988;2024-02-26T03:18:03;9.95;;;8.93;;
55146;SDS011;41039;49.830;23.988;2024-02-26T03:20:29;10.60;;;9.50;;
55146;SDS011;41039;49.830;23.988;2024-02-26T03:22:54;9.30;;;8.30;;
55146;SDS011;41039;49.830;23.988;2024-02-26T03:25:19;9.83;;;8.77;;
55146;SDS011;41039;49.830;23.988;2024-02-26T03:27:44;9.93;;;8.93;;
55146;SDS011;41039;49.830;23.988;2024-02-26T03:30:10;9.20;;;8.07;;
55146;SDS011;41039;49.830;23.988;2024-02-26T03:32:35;9.63;;;8.63;;
55146;SDS011;41039;49.830;23.988;2024-02-26T03:35:00;10.13;;;9.13;;
55146;SDS011;41039;49.830;23.988;2024-02-26T03:37:26;10.23;;;9.18;;
55146;SDS011;41039;49.830;23.988;2024-02-26T03:39:51;8.77;;;7.97;;
55146;SDS011;41039;49.830;23.988;2024-02-26T03:42:16;8.80;;;7.88;;
55146;SDS011;41039;49.830;23.988;2024-02-26T03:44:41;8.90;;;8.00;;
55146;SDS011;41039;49.830;23.988;2024-02-26T03:47:07;9.77;;;8.50;;
55146;SDS011;41039;49.830;23.988;2024-02-26T03:49:32;9.68;;;8.68;;
55146;SDS011;41039;49.830;23.988;2024-02-26T03:51:57;9.33;;;8.40;;
55146;SDS011;41039;49.830;23.988;2024-02-26T03:54:22;9.83;;;8.83;;
55146;SDS011;41039;49.830;23.988;2024-02-26T03:56:48;9.18;;;8.23;;
55146;SDS011;41039;49.830;23.988;2024-02-26T03:59:13;8.77;;;7.87;;
55146;SDS011;41039;49.830;23.988;2024-02-26T04:01:38;8.98;;;8.02;;
55146;SDS011;41039;49.830;23.988;2024-02-26T04:04:03;8.67;;;7.77;;
55146;SDS011;41039;49.830;23.988;2024-02-26T04:06:29;9.63;;;8.38;;
55146;SDS011;41039;49.830;23.988;2024-02-26T04:08:54;7.73;;;6.93;;
55146;SDS011;41039;49.830;23.988;2024-02-26T04:11:19;8.90;;;7.93;;
55146;SDS011;41039;49.830;23.988;2024-02-26T04:13:46;9.07;;;7.82;;
55146;SDS011;41039;49.830;23.988;2024-02-26T04:16:14;8.60;;;7.63;;
55146;SDS011;41039;49.830;23.988;2024-02-26T04:18:39;8.05;;;7.25;;
55146;SDS011;41039;49.830;23.988;2024-02-26T04:21:05;7.83;;;6.97;;
55146;SDS011;41039;49.830;23.988;2024-02-26T04:23:33;8.45;;;7.60;;
55146;SDS011;41039;49.830;23.988;2024-02-26T04:25:58;9.38;;;7.30;;
55146;SDS011;41039;49.830;23.988;2024-02-26T04:28:23;8.15;;;7.35;;
55146;SDS011;41039;49.830;23.988;2024-02-26T04:30:51;8.32;;;7.50;;
55146;SDS011;41039;49.830;23.988;2024-02-26T04:33:16;7.90;;;7.05;;
55146;SDS011;41039;49.830;23.988;2024-02-26T04:35:41;7.78;;;6.63;;
55146;SDS011;41039;49.830;23.988;2024-02-26T04:38:07;8.25;;;7.45;;
55146;SDS011;41039;49.830;23.988;2024-02-26T04:40:32;8.90;;;7.37;;
55146;SDS011;41039;49.830;23.988;2024-02-26T04:42:57;7.90;;;7.10;;
55146;SDS011;41039;49.830;23.988;2024-02-26T04:45:22;7.90;;;7.10;;
55146;SDS011;41039;49.830;23.988;2024-02-26T04:47:48;7.93;;;6.93;;
55146;SDS011;41039;49.830;23.988;2024-02-26T04:50:13;8.60;;;7.22;;
55146;SDS011;41039;49.830;23.988;2024-02-26T04:52:38;8.37;;;7.57;;
55146;SDS011;41039;49.830;23.988;2024-02-26T04:55:03;8.25;;;7.45;;
55146;SDS011;41039;49.830;23.988;2024-02-26T04:57:29;7.07;;;6.38;;
55146;SDS011;41039;49.830;23.988;2024-02-26T04:59:54;6.93;;;6.23;;
55146;SDS011;41039;49.830;23.988;2024-02-26T05:02:19;7.60;;;6.90;;
55146;SDS011;41039;49.830;23.988;2024-02-26T05:04:44;7.90;;;7.00;;
55146;SDS011;41039;49.830;23.988;2024-02-26T05:07:10;7.57;;;6.80;;
55146;SDS011;41039;49.830;23.988;2024-02-26T05:09:35;7.90;;;6.70;;
55146;SDS011;41039;49.830;23.988;2024-02-26T05:12:00;7.30;;;6.60;;
55146;SDS011;41039;49.830;23.988;2024-02-26T05:14:26;7.60;;;6.90;;
55146;SDS011;41039;49.830;23.988;2024-02-26T05:16:51;7.28;;;6.57;;
55146;SDS011;41039;49.830;23.988;2024-02-26T05:19:16;7.70;;;6.90;;
55146;SDS011;41039;49.830;23.988;2024-02-26T05:21:41;8.00;;;7.20;;
55146;SDS011;41039;49.830;23.988;2024-02-26T05:24:09;7.78;;;6.88;;
55146;SDS011;41039;49.830;23.988;2024-02-26T05:26:34;6.75;;;6.07;;
55146;SDS011;41039;49.830;23.988;2024-02-26T05:28:59;6.82;;;6.13;;
55146;SDS011;41039;49.830;23.988;2024-02-26T05:31:25;8.77;;;7.68;;
55146;SDS011;41039;49.830;23.988;2024-02-26T05:33:50;6.85;;;6.15;;
55146;SDS011;41039;49.830;23.988;2024-02-26T05:36:19;7.27;;;6.57;;
55146;SDS011;41039;49.830;23.988;2024-02-26T05:38:44;7.57;;;6.80;;
55146;SDS011;41039;49.830;23.988;2024-02-26T05:41:11;6.75;;;6.05;;
55146;SDS011;41039;49.830;23.988;2024-02-26T05:43:36;7.30;;;6.22;;
55146;SDS011;41039;49.830;23.988;2024-02-26T05:46:02;7.32;;;6.63;;
55146;SDS011;41039;49.830;23.988;2024-02-26T05:48:27;7.47;;;6.78;;
55146;SDS011;41039;49.830;23.988;2024-02-26T05:50:53;6.85;;;6.18;;
55146;SDS011;41039;49.830;23.988;2024-02-26T05:53:18;7.10;;;6.27;;
55146;SDS011;41039;49.830;23.988;2024-02-26T05:55:43;6.40;;;5.80;;
55146;SDS011;41039;49.830;23.988;2024-02-26T05:58:08;7.03;;;6.07;;
55146;SDS011;41039;49.830;23.988;2024-02-26T06:00:33;6.90;;;6.20;;
55146;SDS011;41039;49.830;23.988;2024-02-26T06:02:59;6.70;;;6.10;;
55146;SDS011;41039;49.830;23.988;2024-02-26T06:05:24;6.82;;;5.97;;
55146;SDS011;41039;49.830;23.988;2024-02-26T06:07:49;7.40;;;6.67;;
55146;SDS011;41039;49.830;23.988;2024-02-26T06:10:15;6.03;;;5.35;;
55146;SDS011;41039;49.830;23.988;2024-02-26T06:12:40;7.00;;;6.30;;
55146;SDS011;41039;49.830;23.988;2024-02-26T06:15:06;6.45;;;5.85;;
55146;SDS011;41039;49.830;23.988;2024-02-26T06:17:31;7.05;;;6.35;;
55146;SDS011;41039;49.830;23.988;2024-02-26T06:19:56;7.65;;;6.18;;
55146;SDS011;41039;49.830;23.988;2024-02-26T06:22:22;6.53;;;5.88;;
55146;SDS011;41039;49.830;23.988;2024-02-26T06:24:47;8.40;;;6.25;;
55146;SDS011;41039;49.830;23.988;2024-02-26T06:27:12;6.47;;;5.63;;
55146;SDS011;41039;49.830;23.988;2024-02-26T06:29:37;7.63;;;6.25;;
55146;SDS011;41039;49.830;23.988;2024-02-26T06:32:03;6.93;;;6.23;;
55146;SDS011;41039;49.830;23.988;2024-02-26T06:34:28;7.05;;;6.13;;
55146;SDS011;41039;49.830;23.988;2024-02-26T06:36:53;8.27;;;6.17;;
55146;SDS011;41039;49.830;23.988;2024-02-26T06:39:19;6.82;;;6.13;;
55146;SDS011;41039;49.830;23.988;2024-02-26T06:41:44;6.95;;;6.22;;
55146;SDS011;41039;49.830;23.988;2024-02-26T06:44:11;6.45;;;5.85;;
55146;SDS011;41039;49.830;23.988;2024-02-26T06:46:37;6.85;;;5.72;;
55146;SDS011;41039;49.830;23.988;2024-02-26T06:49:02;6.75;;;5.47;;
55146;SDS011;41039;49.830;23.988;2024-02-26T06:51:27;7.45;;;6.22;;
55146;SDS011;41039;49.830;23.988;2024-02-26T06:53:52;7.13;;;6.20;;
55146;SDS011;41039;49.830;23.988;2024-02-26T06:56:18;6.65;;;5.95;;
55146;SDS011;41039;49.830;23.988;2024-02-26T06:58:43;7.30;;;6.18;;
55146;SDS011;41039;49.830;23.988;2024-02-26T07:01:09;7.10;;;6.20;;
55146;SDS011;41039;49.830;23.988;2024-02-26T07:03:35;7.05;;;5.97;;
55146;SDS011;41039;49.830;23.988;2024-02-26T07:06:00;6.43;;;5.82;;
55146;SDS011;41039;49.830;23.988;2024-02-26T07:08:25;7.38;;;6.35;;
55146;SDS011;41039;49.830;23.988;2024-02-26T07:10:51;6.47;;;5.87;;
55146;SDS011;41039;49.830;23.988;2024-02-26T07:13:16;6.70;;;6.00;;
55146;SDS011;41039;49.830;23.988;2024-02-26T07:15:41;7.20;;;6.25;;
55146;SDS011;41039;49.830;23.988;2024-02-26T07:18:06;7.13;;;6.20;;
55146;SDS011;41039;49.830;23.988;2024-02-26T07:20:32;7.03;;;6.32;;
55146;SDS011;41039;49.830;23.988;2024-02-26T07:22:58;6.63;;;5.70;;
55146;SDS011;41039;49.830;23.988;2024-02-26T07:25:23;6.88;;;5.65;;
55146;SDS011;41039;49.830;23.988;2024-02-26T07:27:49;6.32;;;5.68;;
55146;SDS011;41039;49.830;23.988;2024-02-26T07:30:14;7.43;;;6.13;;
55146;SDS011;41039;49.830;23.988;2024-02-26T07:32:41;6.32;;;5.25;;
55146;SDS011;41039;49.830;23.988;2024-02-26T07:35:06;6.47;;;5.75;;
55146;SDS011;41039;49.830;23.988;2024-02-26T07:37:32;6.38;;;5.47;;
55146;SDS011;41039;49.830;23.988;2024-02-26T07:39:57;6.45;;;5.85;;
55146;SDS011;41039;49.830;23.988;2024-02-26T07:42:22;7.38;;;5.70;;
55146;SDS011;41039;49.830;23.988;2024-02-26T07:44:47;7.07;;;6.00;;
55146;SDS011;41039;49.830;23.988;2024-02-26T07:47:13;6.85;;;5.60;;
55146;SDS011;41039;49.830;23.988;2024-02-26T07:49:39;9.35;;;6.07;;
55146;SDS011;41039;49.830;23.988;2024-02-26T07:52:04;8.23;;;6.07;;
55146;SDS011;41039;49.830;23.988;2024-02-26T07:54:29;9.30;;;6.35;;
55146;SDS011;41039;49.830;23.988;2024-02-26T07:56:55;8.30;;;6.80;;
55146;SDS011;41039;49.830;23.988;2024-02-26T07:59:20;7.70;;;6.28;;
55146;SDS011;41039;49.830;23.988;2024-02-26T08:01:49;8.93;;;6.43;;
55146;SDS011;41039;49.830;23.988;2024-02-26T08:04:14;8.15;;;6.95;;
55146;SDS011;41039;49.830;23.988;2024-02-26T08:06:39;12.82;;;10.02;;
55146;SDS011;41039;49.830;23.988;2024-02-26T08:09:04;15.07;;;12.13;;
55146;SDS011;41039;49.830;23.988;2024-02-26T08:11:30;13.63;;;10.80;;
55146;SDS011;41039;49.830;23.988;2024-02-26T08:13:55;15.87;;;9.23;;
55146;SDS011;41039;49.830;23.988;2024-02-26T08:16:20;10.90;;;8.37;;
55146;SDS011;41039;49.830;23.988;2024-02-26T08:18:45;12.40;;;9.23;;
55146;SDS011;41039;49.830;23.988;2024-02-26T08:21:11;11.20;;;9.03;;
55146;SDS011;41039;49.830;23.988;2024-02-26T08:23:36;12.55;;;9.35;;
55146;SDS011;41039;49.830;23.988;2024-02-26T08:26:01;14.47;;;9.20;;
55146;SDS011;41039;49.830;23.988;2024-02-26T08:28:28;12.52;;;8.55;;
55146;SDS011;41039;49.830;23.988;2024-02-26T08:30:53;13.37;;;8.37;;
55146;SDS011;41039;49.830;23.988;2024-02-26T08:33:19;11.07;;;8.90;;
55146;SDS011;41039;49.830;23.988;2024-02-26T08:35:44;11.10;;;8.60;;
55146;SDS011;41039;49.830;23.988;2024-02-26T08:38:09;11.10;;;8.73;;
55146;SDS011;41039;49.830;23.988;2024-02-26T08:40:34;11.88;;;8.10;;
55146;SDS011;41039;49.830;23.988;2024-02-26T08:43:00;9.93;;;8.13;;
55146;SDS011;41039;49.830;23.988;2024-02-26T08:45:25;14.23;;;8.43;;
55146;SDS011;41039;49.830;23.988;2024-02-26T08:47:52;10.70;;;8.35;;
55146;SDS011;41039;49.830;23.988;2024-02-26T08:50:17;8.75;;;7.65;;
55146;SDS011;41039;49.830;23.988;2024-02-26T08:52:42;9.90;;;8.43;;
55146;SDS011;41039;49.830;23.988;2024-02-26T08:55:08;11.27;;;8.07;;
55146;SDS011;41039;49.830;23.988;2024-02-26T08:57:34;10.85;;;8.27;;
55146;SDS011;41039;49.830;23.988;2024-02-26T08:59:59;10.25;;;7.60;;
55146;SDS011;41039;49.830;23.988;2024-02-26T09:02:25;8.60;;;7.72;;
55146;SDS011;41039;49.830;23.988;2024-02-26T09:04:50;8.50;;;7.57;;
55146;SDS011;41039;49.830;23.988;2024-02-26T09:07:18;9.90;;;7.60;;
55146;SDS011;41039;49.830;23.988;2024-02-26T09:09:43;8.63;;;7.13;;
55146;SDS011;41039;49.830;23.988;2024-02-26T09:12:09;9.40;;;6.97;;
55146;SDS011;41039;49.830;23.988;2024-02-26T09:14:34;11.25;;;8.00;;
55146;SDS011;41039;49.830;23.988;2024-02-26T09:16:59;9.25;;;7.63;;
55146;SDS011;41039;49.830;23.988;2024-02-26T09:19:25;11.50;;;7.57;;
55146;SDS011;41039;49.830;23.988;2024-02-26T09:21:51;9.20;;;7.78;;
55146;SDS011;41039;49.830;23.988;2024-02-26T09:24:16;8.93;;;7.47;;
55146;SDS011;41039;49.830;23.988;2024-02-26T09:26:41;11.07;;;8.33;;
55146;SDS011;41039;49.830;23.988;2024-02-26T09:29:07;10.77;;;7.82;;
55146;SDS011;41039;49.830;23.988;2024-02-26T09:31:33;9.50;;;7.63;;
55146;SDS011;41039;49.830;23.988;2024-02-26T09:33:59;9.40;;;7.30;;
55146;SDS011;41039;49.830;23.988;2024-02-26T09:36:24;9.60;;;8.53;;
55146;SDS011;41039;49.830;23.988;2024-02-26T09:38:49;9.60;;;7.77;;
55146;SDS011;41039;49.830;23.988;2024-02-26T09:41:14;9.73;;;8.17;;
55146;SDS011;41039;49.830;23.988;2024-02-26T09:43:44;10.60;;;8.38;;
55146;SDS011;41039;49.830;23.988;2024-02-26T09:46:13;11.80;;;7.78;;
55146;SDS011;41039;49.830;23.988;2024-02-26T09:48:40;9.48;;;7.20;;
55146;SDS011;41039;49.830;23.988;2024-02-26T09:51:07;10.80;;;8.27;;
55146;SDS011;41039;49.830;23.988;2024-02-26T09:53:34;9.02;;;7.68;;
55146;SDS011;41039;49.830;23.988;2024-02-26T09:56:04;10.85;;;8.40;;
55146;SDS011;41039;49.830;23.988;2024-02-26T09:58:30;10.27;;;7.82;;
55146;SDS011;41039;49.830;23.988;2024-02-26T10:00:56;11.50;;;8.65;;
55146;SDS011;41039;49.830;23.988;2024-02-26T10:03:25;10.23;;;7.72;;
55146;SDS011;41039;49.830;23.988;2024-02-26T10:05:53;9.68;;;7.20;;
55146;SDS011;41039;49.830;23.988;2024-02-26T10:08:20;10.02;;;7.60;;
55146;SDS011;41039;49.830;23.988;2024-02-26T10:10:47;11.88;;;8.20;;
55146;SDS011;41039;49.830;23.988;2024-02-26T10:13:12;10.98;;;7.43;;
55146;SDS011;41039;49.830;23.988;2024-02-26T10:15:37;11.33;;;7.10;;
55146;SDS011;41039;49.830;23.988;2024-02-26T10:18:06;9.40;;;7.30;;
55146;SDS011;41039;49.830;23.988;2024-02-26T10:20:31;9.48;;;7.63;;
55146;SDS011;41039;49.830;23.988;2024-02-26T10:22:57;9.68;;;7.50;;
55146;SDS011;41039;49.830;23.988;2024-02-26T10:25:22;8.70;;;7.38;;
55146;SDS011;41039;49.830;23.988;2024-02-26T10:27:47;8.35;;;7.10;;
55146;SDS011;41039;49.830;23.988;2024-02-26T10:30:15;7.95;;;6.35;;
55146;SDS011;41039;49.830;23.988;2024-02-26T10:32:42;8.13;;;7.05;;
55146;SDS011;41039;49.830;23.988;2024-02-26T10:35:08;8.73;;;7.10;;
55146;SDS011;41039;49.830;23.988;2024-02-26T10:37:33;8.55;;;7.00;;
55146;SDS011;41039;49.830;23.988;2024-02-26T10:39:58;8.00;;;7.17;;
55146;SDS011;41039;49.830;23.988;2024-02-26T10:42:25;8.03;;;6.87;;
55146;SDS011;41039;49.830;23.988;2024-02-26T10:44:50;7.80;;;7.00;;
55146;SDS011;41039;49.830;23.988;2024-02-26T10:47:15;7.65;;;6.35;;
55146;SDS011;41039;49.830;23.988;2024-02-26T10:49:44;8.15;;;6.40;;
55146;SDS011;41039;49.830;23.988;2024-02-26T10:52:10;7.72;;;6.45;;
55146;SDS011;41039;49.830;23.988;2024-02-26T10:54:35;7.45;;;6.32;;
55146;SDS011;41039;49.830;23.988;2024-02-26T10:57:03;9.30;;;6.70;;
55146;SDS011;41039;49.830;23.988;2024-02-26T10:59:29;7.55;;;6.50;;
55146;SDS011;41039;49.830;23.988;2024-02-26T11:01:56;7.30;;;6.35;;
55146;SDS011;41039;49.830;23.988;2024-02-26T11:04:22;7.50;;;6.28;;
55146;SDS011;41039;49.830;23.988;2024-02-26T11:06:48;7.28;;;6.10;;
55146;SDS011;41039;49.830;23.988;2024-02-26T11:09:14;9.88;;;6.55;;
55146;SDS011;41039;49.830;23.988;2024-02-26T11:11:40;8.30;;;6.50;;
55146;SDS011;41039;49.830;23.988;2024-02-26T11:14:05;8.30;;;6.65;;
55146;SDS011;41039;49.830;23.988;2024-02-26T11:16:31;7.43;;;6.65;;
55146;SDS011;41039;49.830;23.988;2024-02-26T11:18:57;7.18;;;6.13;;
55146;SDS011;41039;49.830;23.988;2024-02-26T11:21:22;7.38;;;6.38;;
55146;SDS011;41039;49.830;23.988;2024-02-26T11:23:56;7.20;;;5.70;;
55146;SDS011;41039;49.830;23.988;2024-02-26T11:26:21;6.30;;;4.72;;
55146;SDS011;41039;49.830;23.988;2024-02-26T11:28:48;6.65;;;5.40;;
55146;SDS011;41039;49.830;23.988;2024-02-26T11:31:14;7.22;;;6.03;;
55146;SDS011;41039;49.830;23.988;2024-02-26T11:33:43;6.40;;;5.15;;
55146;SDS011;41039;49.830;23.988;2024-02-26T11:36:08;7.05;;;5.30;;
55146;SDS011;41039;49.830;23.988;2024-02-26T11:38:34;10.07;;;5.80;;
55146;SDS011;41039;49.830;23.988;2024-02-26T11:41:00;7.70;;;6.10;;
55146;SDS011;41039;49.830;23.988;2024-02-26T11:48:55;6.28;;;5.18;;
55146;SDS011;41039;49.830;23.988;2024-02-26T11:51:24;6.80;;;5.07;;
55146;SDS011;41039;49.830;23.988;2024-02-26T11:53:50;7.68;;;4.90;;
55146;SDS011;41039;49.830;23.988;2024-02-26T11:58:47;8.95;;;6.60;;
55146;SDS011;41039;49.830;23.988;2024-02-26T12:03:58;7.93;;;6.03;;
55146;SDS011;41039;49.830;23.988;2024-02-26T12:06:23;9.07;;;6.60;;
55146;SDS011;41039;49.830;23.988;2024-02-26T12:08:50;9.32;;;6.85;;
55146;SDS011;41039;49.830;23.988;2024-02-26T12:11:15;8.65;;;6.70;;
55146;SDS011;41039;49.830;23.988;2024-02-26T12:13:41;11.27;;;7.05;;
55146;SDS011;41039;49.830;23.988;2024-02-26T12:16:06;8.75;;;6.70;;
55146;SDS011;41039;49.830;23.988;2024-02-26T12:18:32;9.88;;;6.28;;
55146;SDS011;41039;49.830;23.988;2024-02-26T12:20:59;7.35;;;6.47;;
55146;SDS011;41039;49.830;23.988;2024-02-26T12:23:28;9.50;;;6.15;;
55146;SDS011;41039;49.830;23.988;2024-02-26T12:25:59;9.15;;;6.60;;
55146;SDS011;41039;49.830;23.988;2024-02-26T12:28:28;6.20;;;5.57;;
55146;SDS011;41039;49.830;23.988;2024-02-26T12:30:53;7.43;;;6.07;;
55146;SDS011;41039;49.830;23.988;2024-02-26T12:33:19;7.25;;;5.88;;
55146;SDS011;41039;49.830;23.988;2024-02-26T12:35:44;8.65;;;5.55;;
55146;SDS011;41039;49.830;23.988;2024-02-26T12:38:12;7.45;;;5.63;;
55146;SDS011;41039;49.830;23.988;2024-02-26T12:40:39;7.15;;;5.57;;
55146;SDS011;41039;49.830;23.988;2024-02-26T12:43:04;8.95;;;5.65;;
55146;SDS011;41039;49.830;23.988;2024-02-26T12:45:29;8.52;;;5.10;;
55146;SDS011;41039;49.830;23.988;2024-02-26T12:47:55;9.97;;;6.17;;
55146;SDS011;41039;49.830;23.988;2024-02-26T12:50:21;8.25;;;5.30;;
55146;SDS011;41039;49.830;23.988;2024-02-26T12:52:46;7.20;;;4.90;;
55146;SDS011;41039;49.830;23.988;2024-02-26T12:55:17;8.68;;;5.40;;
55146;SDS011;41039;49.830;23.988;2024-02-26T12:57:43;8.63;;;5.28;;
55146;SDS011;41039;49.830;23.988;2024-02-26T13:00:10;7.72;;;5.03;;
55146;SDS011;41039;49.830;23.988;2024-02-26T13:02:36;6.90;;;5.20;;
55146;SDS011;41039;49.830;23.988;2024-02-26T13:05:03;5.05;;;4.55;;
55146;SDS011;41039;49.830;23.988;2024-02-26T13:07:28;6.50;;;4.97;;
55146;SDS011;41039;49.830;23.988;2024-02-26T13:09:53;6.43;;;4.25;;
55146;SDS011;41039;49.830;23.988;2024-02-26T13:12:19;6.47;;;4.80;;
55146;SDS011;41039;49.830;23.988;2024-02-26T13:14:44;6.72;;;4.78;;
55146;SDS011;41039;49.830;23.988;2024-02-26T13:17:09;5.80;;;4.63;;
55146;SDS011;41039;49.830;23.988;2024-02-26T13:19:35;6.33;;;4.03;;
55146;SDS011;41039;49.830;23.988;2024-02-26T13:22:04;5.63;;;4.57;;
55146;SDS011;41039;49.830;23.988;2024-02-26T13:24:29;5.60;;;4.53;;
55146;SDS011;41039;49.830;23.988;2024-02-26T13:26:56;5.63;;;4.03;;
55146;SDS011;41039;49.830;23.988;2024-02-26T13:29:21;5.07;;;3.70;;
55146;SDS011;41039;49.830;23.988;2024-02-26T13:31:46;6.68;;;4.43;;
55146;SDS011;41039;49.830;23.988;2024-02-26T13:34:25;7.80;;;4.30;;
55146;SDS011;41039;49.830;23.988;2024-02-26T13:36:51;6.07;;;4.45;;
55146;SDS011;41039;49.830;23.988;2024-02-26T13:39:23;5.72;;;4.30;;
55146;SDS011;41039;49.830;23.988;2024-02-26T13:41:49;6.32;;;4.75;;
55146;SDS011;41039;49.830;23.988;2024-02-26T13:44:14;5.13;;;4.55;;
55146;SDS011;41039;49.830;23.988;2024-02-26T13:46:39;5.50;;;4.20;;
55146;SDS011;41039;49.830;23.988;2024-02-26T13:49:07;5.50;;;4.75;;
55146;SDS011;41039;49.830;23.988;2024-02-26T13:51:33;6.57;;;4.10;;
55146;SDS011;41039;49.830;23.988;2024-02-26T13:54:00;6.70;;;4.10;;
55146;SDS011;41039;49.830;23.988;2024-02-26T13:56:25;4.97;;;3.75;;
55146;SDS011;41039;49.830;23.988;2024-02-26T13:58:51;7.20;;;4.80;;
55146;SDS011;41039;49.830;23.988;2024-02-26T14:01:16;5.68;;;3.92;;
55146;SDS011;41039;49.830;23.988;2024-02-26T14:03:41;5.00;;;4.07;;
55146;SDS011;41039;49.830;23.988;2024-02-26T14:06:07;6.30;;;5.33;;
55146;SDS011;41039;49.830;23.988;2024-02-26T14:08:32;12.85;;;9.30;;
55146;SDS011;41039;49.830;23.988;2024-02-26T14:10:57;15.17;;;11.83;;
55146;SDS011;41039;49.830;23.988;2024-02-26T14:13:22;17.05;;;13.13;;
55146;SDS011;41039;49.830;23.988;2024-02-26T14:15:48;16.00;;;13.37;;
55146;SDS011;41039;49.830;23.988;2024-02-26T14:18:13;15.90;;;12.68;;
55146;SDS011;41039;49.830;23.988;2024-02-26T14:20:38;13.35;;;11.05;;
55146;SDS011;41039;49.830;23.988;2024-02-26T14:23:05;14.60;;;10.55;;
55146;SDS011;41039;49.830;23.988;2024-02-26T14:25:31;15.95;;;10.57;;
55146;SDS011;41039;49.830;23.988;2024-02-26T14:27:57;13.10;;;9.52;;
55146;SDS011;41039;49.830;23.988;2024-02-26T14:30:24;11.98;;;8.93;;